Flight Track Log - Related Links

Times and Time Zones

All times are in EDT time to prevent confusion due to time zone crossing. See the N1BN flight status page for this flight to view local times or setup timezone preferences in your user account.

Time Position Orientation Groundspeed Altitude Reporting Facility
EDT Latitude Longitude Course Direction KTS MPH feet Rate Location/Type
Thu 10:23:08 PM 58.3500 -134.7000 155° Southeast 230 265 4,100  Level Anchorage Center
Thu 10:24:08 PM 58.3500 -134.8333 270° West 270 311 8,200 4,250 Climbing Anchorage Center
Thu 10:25:08 PM 58.3333 -134.9667 257° West 300 345 12,600 3,450 Climbing Anchorage Center
Thu 10:26:08 PM 58.2500 -134.9500 174° South 330 380 15,100 2,430 Climbing Anchorage Center
Thu 10:27:00 PM 58.0016 -134.3866 155° Southeast  Level FlightAware Approximate
Thu 10:27:09 PM 58.1500 -134.8333 148° Southeast 410 472 17,500  Level Anchorage Center
Thu 10:28:00 PM 57.8911 -134.2886 155° Southeast  Level FlightAware Approximate
Thu 10:28:09 PM 58.0500 -134.7167 148° Southeast 440 506 20,000  Level Anchorage Center
Thu 10:29:09 PM 57.9333 -134.6000 152° Southeast 460 529 23,200 2,751 Climbing Anchorage Center
Thu 10:31:10 PM 57.7000 -134.3500 150° Southeast 480 552 28,300 2,374 Climbing Anchorage Center
Thu 10:32:11 PM 57.5833 -134.2333 152° Southeast 500 575 30,400 2,380 Climbing Anchorage Center
Thu 10:33:11 PM 57.4667 -134.1000 148° Southeast 500 575 33,100 2,550 Climbing Anchorage Center
Thu 10:34:11 PM 57.3333 -133.9667 152° Southeast 490 564 35,500 2,231 Climbing Anchorage Center
Thu 10:35:12 PM 57.2167 -133.8500 152° Southeast 490 564 37,600 2,033 Climbing Anchorage Center
Thu 10:36:12 PM 57.1000 -133.7167 148° Southeast 480 552 39,600 1,700 Climbing Anchorage Center
Thu 10:37:12 PM 56.9833 -133.6000 151° Southeast 490 564 41,000 694 Climbing Anchorage Center
Thu 10:38:13 PM 56.8667 -133.4833 151° Southeast 490 564 41,000  Level Anchorage Center
Thu 10:39:13 PM 56.7500 -133.3667 151° Southeast 490 564 41,000  Level Anchorage Center
Thu 10:40:13 PM 56.6167 -133.2333 151° Southeast 510 587 41,000  Level Anchorage Center
Thu 10:41:14 PM 56.5000 -133.1167 151° Southeast 500 575 41,000  Level Anchorage Center
Thu 10:42:14 PM 56.3833 -132.9833 148° Southeast 510 587 41,000  Level Anchorage Center
Thu 10:43:14 PM 56.2500 -132.8500 151° Southeast 510 587 41,000  Level Anchorage Center
Thu 10:44:15 PM 56.1333 -132.7167 147° Southeast 510 587 41,000  Level Anchorage Center
Thu 10:45:15 PM 56.0167 -132.5833 147° Southeast 510 587 41,000  Level Anchorage Center
Thu 10:46:15 PM 55.9000 -132.4667 151° Southeast 500 575 41,000  Level Anchorage Center
Thu 10:47:16 PM 55.7833 -132.3333 147° Southeast 500 575 41,000  Level Anchorage Center
Thu 10:48:16 PM 55.6667 -132.2000 147° Southeast 500 575 41,000  Level Anchorage Center
Thu 10:49:17 PM 55.5500 -132.0833 150° Southeast 500 575 41,000  Level Anchorage Center
Thu 10:50:17 PM 55.4000 -131.9333 150° Southeast 500 575 41,000  Level Anchorage Center
Thu 10:51:17 PM 55.2833 -131.8167 150° Southeast 490 564 41,000  Level Anchorage Center
Thu 10:52:17 PM 55.1667 -131.6833 147° Southeast 500 575 41,000  Level Anchorage Center
Thu 10:53:18 PM 55.0500 -131.5667 150° Southeast 500 575 41,000  Level Anchorage Center
Thu 10:54:18 PM 54.9333 -131.4333 147° Southeast 490 564 41,000  Level Anchorage Center
Thu 10:55:01 PM 54.8500 -131.3667 155° Southeast 490 564 41,000  Level Vancouver Center
Thu 10:56:01 PM 54.7500 -131.2333 142° Southeast 480 552 41,000  Level Vancouver Center
Thu 10:57:01 PM 54.6333 -131.1000 146° Southeast 480 552 41,000  Level Vancouver Center
Thu 10:58:01 PM 54.5167 -130.9833 150° Southeast 490 564 41,000  Level Vancouver Center
Thu 10:59:00 PM 54.4167 -130.8333 139° Southeast 490 564 41,000  Level Vancouver Center
Thu 11:00:01 PM 54.3000 -130.7000 146° Southeast 490 564 41,000  Level Vancouver Center
Thu 11:01:00 PM 54.2000 -130.5667 142° Southeast 480 552 41,000  Level Vancouver Center
Thu 11:02:00 PM 54.0833 -130.4667 153° Southeast 470 541 41,000  Level Vancouver Center
Thu 11:03:00 PM 53.9667 -130.3333 146° Southeast 480 552 41,000  Level Vancouver Center
Thu 11:04:00 PM 53.8667 -130.2000 142° Southeast 480 552 41,000  Level Vancouver Center
Thu 11:05:01 PM 53.7500 -130.0667 146° Southeast 480 552 41,000  Level Vancouver Center
Thu 11:06:00 PM 53.6500 -129.9333 142° Southeast 480 552 41,000  Level Vancouver Center
Thu 11:07:00 PM 53.5333 -129.8167 149° Southeast 480 552 41,000  Level Vancouver Center
Thu 11:08:00 PM 53.4167 -129.6833 146° Southeast 490 564 41,000  Level Vancouver Center
Thu 11:09:00 PM 53.3167 -129.5500 141° Southeast 490 564 41,000  Level Vancouver Center
Thu 11:10:00 PM 53.2000 -129.4333 149° Southeast 480 552 41,000  Level Vancouver Center
Thu 11:11:01 PM 53.0833 -129.3000 146° Southeast 480 552 41,000  Level Vancouver Center
Thu 11:12:00 PM 52.9833 -129.1833 145° Southeast 490 564 41,000  Level Vancouver Center
Thu 11:13:00 PM 52.8667 -129.0500 145° Southeast 490 564 41,000  Level Vancouver Center
Thu 11:14:00 PM 52.7500 -128.9333 149° Southeast 490 564 41,000  Level Vancouver Center
Thu 11:15:00 PM 52.6167 -128.8000 149° Southeast 500 575 41,000  Level Vancouver Center
Thu 11:16:01 PM 52.5333 -128.7167 149° Southeast 490 564 41,000  Level Vancouver Center
Thu 11:17:00 PM 52.4000 -128.5667 146° Southeast 490 564 41,000  Level Vancouver Center
Thu 11:18:00 PM 52.2833 -128.4667 152° Southeast 480 552 41,000  Level Vancouver Center
Thu 11:19:00 PM 52.1833 -128.3167 137° Southeast 490 564 41,000  Level Vancouver Center
Thu 11:20:00 PM 52.0667 -128.2333 156° South 490 564 41,000  Level Vancouver Center
Thu 11:21:01 PM 51.9500 -128.1000 145° Southeast 490 564 41,000  Level Vancouver Center
Thu 11:22:00 PM 51.8333 -127.9833 148° Southeast 490 564 41,000  Level Vancouver Center
Thu 11:23:00 PM 51.7167 -127.8667 148° Southeast 480 552 41,000  Level Vancouver Center
Thu 11:24:00 PM 51.6167 -127.7500 144° Southeast 480 552 41,000  Level Vancouver Center
Thu 11:25:00 PM 51.5000 -127.6333 148° Southeast 490 564 41,000  Level Vancouver Center
Thu 11:26:00 PM 51.3833 -127.5167 148° Southeast 480 552 41,000  Level Vancouver Center
Thu 11:27:01 PM 51.2667 -127.4000 148° Southeast 480 552 41,000  Level Vancouver Center
Thu 11:28:00 PM 51.1500 -127.2833 148° Southeast 480 552 41,000  Level Vancouver Center
Thu 11:29:00 PM 51.0500 -127.1667 144° Southeast 480 552 41,000  Level Vancouver Center
Thu 11:30:01 PM 50.9333 -127.0500 148° Southeast 480 552 41,000  Level Vancouver Center
Thu 11:31:00 PM 50.8167 -126.9500 152° Southeast 480 552 41,000  Level Vancouver Center
Thu 11:32:00 PM 50.7000 -126.8500 151° Southeast 480 552 41,000  Level Vancouver Center
Thu 11:33:00 PM 50.5833 -126.7167 144° Southeast 480 552 41,000  Level Vancouver Center
Thu 11:34:00 PM 50.4667 -126.6333 156° South 480 552 41,000  Level Vancouver Center
Thu 11:35:01 PM 50.3667 -126.5167 143° Southeast 480 552 41,000  Level Vancouver Center
Thu 11:36:01 PM 50.2500 -126.4167 151° Southeast 490 564 41,000  Level Vancouver Center
Thu 11:37:00 PM 50.1333 -126.3000 147° Southeast 480 552 41,000  Level Vancouver Center
Thu 11:38:00 PM 50.0167 -126.1833 147° Southeast 480 552 41,000  Level Vancouver Center
Thu 11:39:00 PM 49.9000 -126.0833 151° Southeast 480 552 41,000  Level Vancouver Center
Thu 11:40:00 PM 49.7833 -125.9667 147° Southeast 480 552 41,000  Level Vancouver Center
Thu 11:41:01 PM 49.6667 -125.8667 151° Southeast 480 552 41,000  Level Vancouver Center
Thu 11:42:00 PM 49.5500 -125.7500 147° Southeast 490 564 41,000  Level Vancouver Center
Thu 11:43:00 PM 49.4333 -125.6500 151° Southeast 480 552 41,000  Level Vancouver Center
Thu 11:44:00 PM 49.3333 -125.5333 143° Southeast 480 552 41,000  Level Vancouver Center
Thu 11:45:00 PM 49.2167 -125.4667 160° South 480 552 41,000  Level Vancouver Center
Thu 11:46:01 PM 49.1000 -125.3500 147° Southeast 480 552 41,000  Level Vancouver Center
Thu 11:47:00 PM 48.9833 -125.2500 151° Southeast 480 552 41,000  Level Vancouver Center
Thu 11:48:00 PM 48.8667 -125.1500 151° Southeast 480 552 41,000  Level Vancouver Center
Thu 11:49:00 PM 48.7500 -125.0333 147° Southeast 480 552 41,000  Level Vancouver Center
Thu 11:50:00 PM 48.6333 -124.9333 150° Southeast 480 552 41,000  Level Vancouver Center
Thu 11:51:01 PM 48.5167 -124.8333 150° Southeast 490 564 41,000  Level Vancouver Center
Thu 11:52:00 PM 48.4000 -124.7333 150° Southeast 490 564 41,000  Level Vancouver Center
Thu 11:53:00 PM 48.2833 -124.6333 150° Southeast 480 552 41,000  Level Vancouver Center
Thu 11:53:41 PM 48.2194 -124.5964 159° South 493 567 41,000  Level Seattle Center
Thu 11:54:42 PM 48.0914 -124.5519 167° South 481 554 41,000  Level Seattle Center
Thu 11:55:43 PM 47.9608 -124.5192 170° South 476 548 41,000  Level Seattle Center
Thu 11:56:44 PM 47.8314 -124.4869 171° South 474 545 41,000  Level Seattle Center
Thu 11:57:44 PM 47.7028 -124.4525 170° South 472 543 41,000  Level Seattle Center
Thu 11:58:45 PM 47.5736 -124.4181 170° South 473 544 41,000  Level Seattle Center
Thu 11:59:46 PM 47.4442 -124.3842 170° South 473 544 41,000  Level Seattle Center
Fri 12:00:47 AM 47.3164 -124.3492 169° South 470 541 41,000  Level Seattle Center
Fri 12:01:48 AM 47.1883 -124.3169 170° South 469 540 41,000  Level Seattle Center
Fri 12:02:48 AM 47.0356 -124.2769 170° South 467 537 41,000  Level Seattle Center
Fri 12:03:49 AM 46.9083 -124.2464 171° South 465 535 41,000  Level Seattle Center
Fri 12:04:50 AM 46.7825 -124.2111 169° South 463 533 41,000  Level Seattle Center
Fri 12:05:51 AM 46.6558 -124.1789 170° South 463 533 41,000  Level Seattle Center
Fri 12:06:52 AM 46.5292 -124.1478 170° South 462 532 41,000  Level Seattle Center
Fri 12:07:52 AM 46.4000 -124.1150 170° South 465 535 41,000  Level Seattle Center
Fri 12:08:53 AM 46.2722 -124.0836 170° South 467 537 41,000  Level Seattle Center
Fri 12:09:54 AM 46.1450 -124.0500 170° South 466 536 41,000  Level Seattle Center
Fri 12:10:55 AM 46.0175 -124.0225 171° South 466 536 41,000  Level Seattle Center
Fri 12:11:55 AM 45.8906 -123.9906 170° South 466 536 41,000  Level Seattle Center
Fri 12:12:56 AM 45.7628 -123.9575 170° South 467 537 41,000  Level Seattle Center
Fri 12:13:57 AM 45.6347 -123.9278 171° South 468 539 41,000  Level Seattle Center
Fri 12:14:58 AM 45.5064 -123.8958 170° South 470 541 41,000  Level Seattle Center
Fri 12:15:58 AM 45.3797 -123.8642 170° South 467 537 41,000  Level Seattle Center
Fri 12:16:59 AM 45.2539 -123.8333 170° South 463 533 41,000  Level Seattle Center
Fri 12:18:00 AM 45.1281 -123.8047 171° South 463 533 41,000  Level Seattle Center
Fri 12:19:01 AM 44.9764 -123.7697 171° South 467 537 41,000  Level Seattle Center
Fri 12:20:01 AM 44.8503 -123.7389 170° South 471 542 41,000  Level Seattle Center
Fri 12:21:02 AM 44.7247 -123.7078 170° South 471 542 41,000  Level Seattle Center
Fri 12:22:03 AM 44.5997 -123.6772 170° South 462 532 41,000  Level Seattle Center
Fri 12:23:04 AM 44.4717 -123.6472 171° South 464 534 41,000  Level Seattle Center
Fri 12:24:04 AM 44.3469 -123.6167 170° South 463 533 41,000  Level Seattle Center
Fri 12:25:05 AM 44.2200 -123.5928 172° South 460 529 41,000  Level Seattle Center
Fri 12:26:06 AM 44.0931 -123.5636 171° South 466 536 41,000  Level Seattle Center
Fri 12:27:07 AM 43.9531 -123.5289 170° South 464 534 41,000  Level Seattle Center
Fri 12:28:07 AM 43.8267 -123.4989 170° South 464 534 41,000  Level Seattle Center
Fri 12:29:08 AM 43.7017 -123.4683 170° South 460 529 41,000  Level Seattle Center
Fri 12:30:09 AM 43.5767 -123.4406 171° South 457 526 41,000  Level Seattle Center
Fri 12:31:09 AM 43.4514 -123.4131 171° South 456 525 41,000  Level Seattle Center
Fri 12:32:10 AM 43.3264 -123.3847 171° South 457 526 41,000  Level Seattle Center
Fri 12:33:11 AM 43.2017 -123.3564 171° South 455 524 41,000  Level Seattle Center
Fri 12:34:11 AM 43.0800 -123.3886 191° South 447 514 41,000  Level Seattle Center
Fri 12:35:12 AM 42.9575 -123.4047 185° South 445 512 41,000  Level Seattle Center
Fri 12:36:12 AM 42.8086 -123.3833 174° South 446 513 41,000  Level Seattle Center
Fri 12:37:13 AM 42.7058 -123.3728 176° South 443 510 41,000  Level Seattle Center
Fri 12:38:14 AM 42.5814 -123.3581 175° South 448 516 41,000  Level Seattle Center
Fri 12:39:14 AM 42.4333 -123.3411 175° South 448 516 41,000  Level Seattle Center
Fri 12:40:15 AM 42.3108 -123.3250 174° South 446 513 41,000  Level Seattle Center
Fri 12:41:16 AM 42.1883 -123.3111 175° South 444 511 41,000  Level Seattle Center
Fri 12:42:17 AM 42.0658 -123.2967 175° South 444 511 41,000  Level Seattle Center
Fri 12:43:17 AM 41.9439 -123.2839 176° South 444 511 41,000  Level Seattle Center
Fri 12:44:18 AM 41.8214 -123.2692 175° South 443 510 41,000  Level Seattle Center
Fri 12:45:19 AM 41.6994 -123.2542 175° South 442 509 41,000  Level Seattle Center
Fri 12:46:19 AM 41.5822 -123.2436 176° South 425 489 41,000  Level Seattle Center
Fri 12:47:20 AM 41.4614 -123.2297 175° South 434 499 41,000  Level Seattle Center
Fri 12:48:21 AM 41.3256 -123.2153 175° South 438 504 41,000  Level Seattle Center
Fri 12:49:22 AM 41.2056 -123.2028 176° South 434 499 41,000  Level Seattle Center
Fri 12:50:22 AM 41.0864 -123.1886 175° South 430 495 41,000  Level Seattle Center
Fri 12:51:23 AM 40.9664 -123.1756 175° South 432 497 41,000  Level Seattle Center
Fri 12:52:24 AM 40.8444 -123.1622 175° South 435 501 41,000  Level Seattle Center
Fri 12:53:24 AM 40.7350 -123.1492 175° South 432 497 41,000  Level Seattle Center
Fri 12:54:25 AM 40.6169 -123.1372 176° South 429 494 41,000  Level Seattle Center
Fri 12:55:26 AM 40.4986 -123.1247 175° South 429 494 41,000  Level Seattle Center
Fri 12:56:26 AM 40.3806 -123.1117 175° South 429 494 41,000  Level Seattle Center
Fri 12:56:56 AM 40.3081 -123.1039 175° South 428 493 41,000  Level Oakland Center
Fri 12:57:57 AM 40.1906 -123.0925 176° South 426 490 41,000  Level Oakland Center
Fri 12:58:58 AM 40.0731 -123.0797 175° South 427 491 41,000  Level Oakland Center
Fri 12:59:59 AM 39.9553 -123.0669 175° South 426 490 41,000  Level Oakland Center
Fri 01:01:00 AM 39.8367 -123.0539 175° South 429 494 41,000  Level Oakland Center
Fri 01:02:01 AM 39.7186 -123.0383 174° South 431 496 41,000 -148 Level Oakland Center
Fri 01:03:02 AM 39.5744 -123.0069 170° South 438 504 40,700 -885 Descending Oakland Center
Fri 01:04:03 AM 39.4556 -122.9817 171° South 430 495 39,200 -1,377 Descending Oakland Center
Fri 01:05:04 AM 39.3594 -122.9594 170° South 426 490 37,900 -1,537 Descending Oakland Center
Fri 01:06:04 AM 39.2147 -122.9311 171° South 439 505 36,100 -1,587 Descending Oakland Center
Fri 01:07:05 AM 39.0939 -122.9058 171° South 440 506 34,700 -1,426 Descending Oakland Center
Fri 01:08:06 AM 38.9703 -122.8819 171° South 447 514 33,200 -1,475 Descending Oakland Center
Fri 01:09:07 AM 38.8461 -122.8564 171° South 453 521 31,700 -1,672 Descending Oakland Center
Fri 01:10:08 AM 38.7183 -122.8342 172° South 462 532 29,800 -1,967 Descending Oakland Center
Fri 01:11:09 AM 38.5975 -122.8103 171° South 446 513 27,700 -2,016 Descending Oakland Center
Fri 01:12:10 AM 38.4761 -122.7861 171° South 445 512 25,700 -1,918 Descending Oakland Center
Fri 01:13:11 AM 38.3606 -122.7636 171° South 426 490 23,800 -1,869 Descending Oakland Center
Fri 01:14:12 AM 38.2475 -122.7411 171° South 414 476 21,900 -1,869 Descending Oakland Center
Fri 01:15:13 AM 38.1369 -122.7197 171° South 406 467 20,000 -1,820 Descending Oakland Center
Fri 01:16:14 AM 38.0272 -122.6983 171° South 400 460 18,200 -1,820 Descending Oakland Center
Fri 01:17:15 AM 37.9019 -122.6744 171° South 395 455 16,300 -1,770 Descending Oakland Center
Fri 01:18:16 AM 37.8217 -122.5914 141° Southeast 387 445 14,600 -1,686 Descending Oakland Center
Fri 01:19:16 AM 37.7453 -122.5086 139° Southeast 371 427 12,900 -1,289 Descending Oakland Center
Fri 01:20:17 AM 37.6706 -122.4283 140° Southeast 358 412 12,000 -410 Descending Oakland Center
Fri 01:21:13 AM 37.6000 -122.3500 139° Southeast 312 359 12,100 -466 Climbing Northern Cal TRACON
Fri 01:22:13 AM 37.5333 -122.3167 158° South 292 336 11,100 -1,048 Descending Northern Cal TRACON
Fri 01:23:19 AM 37.4500 -122.2667 155° Southeast 285 328 9,900 -1,048 Descending Northern Cal TRACON
Fri 01:24:19 AM 37.3667 -122.2167 155° Southeast 285 328 8,900 -1,220 Descending Northern Cal TRACON
Fri 01:25:22 AM 37.3347 -122.1475 120° Southeast 294 338 7,400 -1,415 Descending Oakland Center
Fri 01:26:22 AM 37.2814 -122.0497 124° Southeast 286 329 6,000 -992 Descending Oakland Center
Fri 01:27:23 AM 37.2400 -121.9744 125° Southeast 270 311 5,400 -541 Descending Oakland Center
Fri 01:28:24 AM 37.2556 -121.9122 73° East 218 251 4,900 -1,241 Descending Oakland Center
Fri 01:29:19 AM 37.2833 -121.8667 53° Northeast 171 197 3,000 -2,035 Descending Northern Cal TRACON
Fri 01:30:19 AM 37.3333 -121.9000 332° Northwest 154 177 1,000 -1,370 Descending Northern Cal TRACON
Fri 01:31:26 AM 37.3553 -121.9228 320° Northwest 145 167 100 -806 Descending Oakland Center

Login

Don't have an account? Register now (free) for customized features, flight alerts, and more!